Stewart, Nevada
Current Conditions -  °F | °C
As of 5:35 PM on Monday 24 Nov 2014 (Local Time) from KCXP Reporting Station
Clear Clear  
Wind Chill: 41°   Ceiling: Unl
Heat Index: 41°   Visibility: 10mi
Dew Point: 16°   Wind: 0mph
Humidity: 36%   Direction: NA
Pressure: 30.44"   Gusts: NA
Location:  39.1386°N, 119.659°W
Report Text: KCXP 250135Z AUTO 00000KT 10SM CLR 05/M09 A3044 RMK AO2
Loading
Personal Weather Stations






























Interactive Weather Map New forecast layout! Learn more

10-Day Weather Forecast

Advertisements
Track Severe Weather on mobile